ETNL/RLG METAR and TAF weather

Enter ICAO airport designator
Station Type Date Time Source
ETNL METAR 2019/05/19 06:20 UTC NOAA

ETNL 190620Z 08010KT 2000 BR BKN001 12/12 Q1008 RED


Station Type Date Time Source
ETNL Decoded METAR 2019/05/19 06:20 UTC NOAA

Laage, Germany (ETNL) 53-55N 012-17E 46M
May 19, 2019 - 02:20 AM EDT / 2019.05.19 0620 UTC
Wind: from the E (080 degrees) at 12 MPH (10 KT):0
Visibility: 1 mile(s):0
Sky conditions: mostly cloudy
Weather: mist
Temperature: 53 F (12 C)
Dew Point: 53 F (12 C)
Relative Humidity: 100%
Pressure (altimeter): 29.77 in. Hg (1008 hPa)
ob: ETNL 190620Z 08010KT 2000 BR BKN001 12/12 Q1008 RED
cycle: 6

Station Type Date Time Source
ETNL TAF 2019/02/17 00:37 UTC NOAA

TAF ETNL 172300Z 1800/1818 16005KT 7000 NSW BKN280
BECMG 1801/1803 22005KT 4000 BR BKN250 PROB30 1303/1807 18003KT 2000 BR BKN010
BECMG 1808/1810 24008KT 9999 NSW BKN250 BY ETGL

Example: see airport list